createdAt,value
2019-06-08T00:00:05.581Z,21.80
2019-06-08T00:02:34.165Z,21.80
2019-06-08T00:05:02.561Z,21.80
2019-06-08T00:07:29.347Z,21.90
2019-06-08T00:09:56.056Z,21.90
2019-06-08T00:12:23.235Z,21.80
2019-06-08T00:14:51.744Z,22.00
2019-06-08T00:17:34.568Z,21.90
2019-06-08T00:19:48.096Z,22.00
2019-06-08T00:22:15.737Z,22.00
2019-06-08T00:24:42.390Z,22.10
2019-06-08T00:27:08.954Z,22.10
2019-06-08T00:29:35.694Z,22.20
2019-06-08T00:32:02.660Z,22.20
2019-06-08T00:34:29.233Z,22.10
2019-06-08T00:36:55.797Z,22.10
2019-06-08T00:39:23.459Z,22.10
2019-06-08T00:41:50.109Z,22.10
2019-06-08T00:44:17.170Z,22.10
2019-06-08T00:46:43.882Z,22.10
2019-06-08T00:49:10.382Z,22.10
2019-06-08T00:51:37.057Z,22.20
2019-06-08T00:54:03.775Z,22.10
2019-06-08T00:56:30.333Z,22.20
2019-06-08T00:58:56.908Z,22.00
2019-06-08T01:01:28.028Z,22.00
2019-06-08T01:03:54.032Z,22.00
2019-06-08T01:06:20.937Z,22.00
2019-06-08T01:08:47.756Z,21.90
2019-06-08T01:11:14.351Z,21.80
2019-06-08T01:13:41.000Z,21.90
2019-06-08T01:16:10.083Z,21.90
2019-06-08T01:18:36.913Z,21.90
2019-06-08T01:21:04.015Z,22.00
2019-06-08T01:23:31.703Z,22.00
2019-06-08T01:25:58.379Z,21.90
2019-06-08T01:28:26.170Z,22.00
2019-06-08T01:30:53.003Z,22.00
2019-06-08T01:33:20.404Z,22.10
2019-06-08T01:35:47.487Z,22.10
2019-06-08T01:38:14.000Z,22.10
2019-06-08T01:40:40.559Z,22.10
2019-06-08T01:43:07.252Z,22.10
2019-06-08T01:45:35.025Z,22.10
2019-06-08T01:48:18.618Z,22.10
2019-06-08T01:50:32.794Z,22.00
2019-06-08T01:52:59.984Z,22.10
2019-06-08T01:55:27.213Z,22.10
2019-06-08T01:57:53.897Z,22.00
2019-06-08T02:00:41.104Z,22.00
2019-06-08T02:02:50.163Z,22.00
2019-06-08T02:05:17.020Z,22.10
2019-06-08T02:07:44.711Z,22.00
2019-06-08T02:10:12.859Z,22.00
2019-06-08T02:12:39.663Z,21.90
2019-06-08T02:15:07.266Z,21.90
2019-06-08T02:17:35.578Z,21.90
2019-06-08T02:20:06.084Z,21.90
2019-06-08T02:22:33.070Z,21.90
2019-06-08T02:24:59.750Z,22.00
2019-06-08T02:27:27.464Z,21.90
2019-06-08T02:29:54.872Z,21.80
2019-06-08T02:32:21.562Z,21.80
2019-06-08T02:34:48.430Z,21.80
2019-06-08T02:37:15.334Z,21.80
2019-06-08T02:39:42.255Z,21.80
2019-06-08T02:42:09.814Z,21.90
2019-06-08T02:44:36.571Z,21.90
2019-06-08T02:47:04.363Z,21.90
2019-06-08T02:49:33.174Z,21.80
2019-06-08T02:52:00.077Z,21.80
2019-06-08T02:54:27.230Z,21.80
2019-06-08T02:56:54.440Z,21.80
2019-06-08T02:59:27.007Z,21.70
2019-06-08T03:01:54.330Z,21.70
2019-06-08T03:04:22.368Z,21.70
2019-06-08T03:06:50.931Z,21.70
2019-06-08T03:09:20.255Z,21.80
2019-06-08T03:11:48.278Z,21.60
2019-06-08T03:14:18.214Z,21.60
2019-06-08T03:16:44.774Z,21.60
2019-06-08T03:19:21.719Z,21.50
2019-06-08T03:21:42.514Z,21.50
2019-06-08T03:24:09.166Z,21.40
2019-06-08T03:26:36.700Z,21.30
2019-06-08T03:29:06.045Z,21.30
2019-06-08T03:31:36.095Z,21.30
2019-06-08T03:34:00.843Z,21.40
2019-06-08T03:36:27.699Z,21.20
2019-06-08T03:38:54.214Z,21.30
2019-06-08T03:41:21.007Z,21.20
2019-06-08T03:43:47.950Z,21.20
2019-06-08T03:46:14.611Z,21.00
2019-06-08T03:48:42.230Z,21.00
2019-06-08T03:51:09.817Z,20.90
2019-06-08T03:53:37.986Z,20.90
2019-06-08T03:56:04.924Z,20.80
2019-06-08T03:58:34.368Z,20.80
2019-06-08T04:01:01.733Z,20.70
2019-06-08T04:03:28.423Z,20.80
2019-06-08T04:05:54.943Z,20.80
2019-06-08T04:08:21.501Z,20.90
2019-06-08T04:10:50.212Z,21.10
2019-06-08T04:13:18.033Z,21.10
2019-06-08T04:15:46.582Z,21.10
2019-06-08T04:18:12.929Z,21.10
2019-06-08T04:20:42.788Z,21.10
2019-06-08T04:23:09.044Z,21.20
2019-06-08T04:25:35.558Z,21.30
2019-06-08T04:28:02.051Z,21.30
2019-06-08T04:30:28.513Z,21.10
2019-06-08T04:32:55.174Z,21.10
2019-06-08T04:35:24.598Z,21.30
2019-06-08T04:37:51.042Z,21.40
2019-06-08T04:40:17.906Z,21.30
2019-06-08T04:42:46.064Z,21.40
2019-06-08T04:45:13.314Z,21.50
2019-06-08T04:47:43.039Z,21.40
2019-06-08T04:50:21.687Z,21.20
2019-06-08T04:52:38.879Z,21.30
2019-06-08T04:55:06.324Z,21.20
2019-06-08T04:57:33.228Z,21.20
2019-06-08T04:59:59.623Z,21.20
2019-06-08T05:02:26.258Z,21.40
2019-06-08T05:04:53.101Z,21.30
2019-06-08T05:07:19.730Z,21.30
2019-06-08T05:09:47.160Z,21.30
2019-06-08T05:12:13.736Z,21.30
2019-06-08T05:14:41.042Z,21.40
2019-06-08T05:17:07.714Z,21.30
2019-06-08T05:19:35.605Z,21.30
2019-06-08T05:22:03.167Z,21.20
2019-06-08T05:24:29.789Z,21.20
2019-06-08T05:26:56.533Z,21.20
2019-06-08T05:29:23.156Z,21.10
2019-06-08T05:31:49.960Z,21.30
2019-06-08T05:34:16.575Z,21.50
2019-06-08T05:36:43.414Z,21.50
2019-06-08T05:39:10.051Z,21.70
2019-06-08T05:41:37.553Z,21.70
2019-06-08T05:44:04.206Z,21.70
2019-06-08T05:46:30.729Z,21.80
2019-06-08T05:48:57.153Z,21.90
2019-06-08T05:51:24.488Z,22.10
2019-06-08T05:53:51.638Z,22.20
2019-06-08T05:56:18.663Z,22.40
2019-06-08T05:58:45.988Z,22.60
2019-06-08T06:01:12.668Z,22.80
2019-06-08T06:03:40.294Z,22.80
2019-06-08T06:06:06.932Z,23.00
2019-06-08T06:08:33.523Z,23.00
2019-06-08T06:11:00.173Z,23.20
2019-06-08T06:13:26.740Z,23.40
2019-06-08T06:15:53.262Z,23.60
2019-06-08T06:18:19.915Z,23.80
2019-06-08T06:20:47.286Z,23.90
2019-06-08T06:23:15.133Z,24.00
2019-06-08T06:25:43.503Z,24.10
2019-06-08T06:28:12.053Z,24.20
2019-06-08T06:30:38.792Z,24.40
2019-06-08T06:33:05.505Z,24.60
2019-06-08T06:35:32.316Z,24.70
2019-06-08T06:38:01.883Z,24.70
2019-06-08T06:40:28.722Z,24.70
2019-06-08T06:42:55.447Z,24.80
2019-06-08T06:45:22.108Z,25.00
2019-06-08T06:47:50.571Z,25.10
2019-06-08T06:50:17.020Z,25.20
2019-06-08T06:52:44.638Z,25.30
2019-06-08T06:55:11.558Z,25.40
2019-06-08T06:57:38.232Z,25.40
2019-06-08T07:00:09.737Z,25.50
2019-06-08T07:02:36.351Z,25.60
2019-06-08T07:05:04.852Z,25.70
2019-06-08T07:07:32.496Z,25.80
2019-06-08T07:09:59.167Z,25.90
2019-06-08T07:12:25.942Z,26.00
2019-06-08T07:14:53.251Z,26.10
2019-06-08T07:17:20.045Z,26.10
2019-06-08T07:19:46.438Z,26.20
2019-06-08T07:22:13.029Z,26.30
2019-06-08T07:24:42.340Z,26.40
2019-06-08T07:27:09.079Z,26.40
2019-06-08T07:29:36.835Z,26.20
2019-06-08T07:32:03.479Z,26.30
2019-06-08T07:34:30.107Z,26.40
2019-06-08T07:36:56.818Z,26.50
2019-06-08T07:39:23.607Z,26.50
2019-06-08T07:41:51.707Z,26.60
2019-06-08T07:44:19.364Z,26.70
2019-06-08T07:46:46.971Z,26.90
2019-06-08T07:49:13.632Z,27.00
2019-06-08T07:51:57.281Z,27.10
2019-06-08T07:54:09.692Z,27.10
2019-06-08T07:56:36.243Z,27.20
2019-06-08T07:59:03.173Z,27.20
2019-06-08T08:01:36.113Z,27.20
2019-06-08T08:03:58.424Z,27.30
2019-06-08T08:06:25.055Z,27.30
2019-06-08T08:08:52.634Z,27.30
2019-06-08T08:11:19.434Z,27.40
2019-06-08T08:13:47.051Z,27.50
2019-06-08T08:16:13.476Z,27.60
2019-06-08T08:18:40.133Z,27.70
2019-06-08T08:21:18.873Z,27.80
2019-06-08T08:23:35.334Z,27.80
2019-06-08T08:26:03.953Z,27.60
2019-06-08T08:28:30.605Z,27.60
2019-06-08T08:30:59.789Z,27.60
2019-06-08T08:33:27.658Z,27.70
2019-06-08T08:35:55.574Z,27.60
2019-06-08T08:38:23.062Z,27.60
2019-06-08T08:40:51.138Z,27.70
2019-06-08T08:43:18.019Z,27.80
2019-06-08T08:45:44.556Z,27.70
2019-06-08T08:48:24.570Z,27.90
2019-06-08T08:50:39.695Z,28.00
2019-06-08T08:53:08.200Z,28.10
2019-06-08T08:55:34.635Z,28.10
2019-06-08T08:58:02.295Z,28.10
2019-06-08T09:00:29.054Z,28.10
2019-06-08T09:03:17.538Z,28.10
2019-06-08T09:05:24.381Z,28.20
2019-06-08T09:07:52.041Z,28.10
2019-06-08T09:10:19.355Z,28.20
2019-06-08T09:12:48.367Z,28.10
2019-06-08T09:15:14.601Z,28.10
2019-06-08T09:17:41.140Z,28.10
2019-06-08T09:20:13.092Z,28.30
2019-06-08T09:22:52.025Z,28.30
2019-06-08T09:25:08.625Z,28.20
2019-06-08T09:27:38.108Z,28.30
2019-06-08T09:30:05.263Z,28.20
2019-06-08T09:32:31.863Z,28.30
2019-06-08T09:35:02.684Z,28.40
2019-06-08T09:37:28.859Z,28.40
2019-06-08T09:39:56.567Z,28.40
2019-06-08T09:42:28.368Z,28.50
2019-06-08T09:44:55.456Z,28.40
2019-06-08T09:47:22.985Z,28.60
2019-06-08T09:49:49.639Z,28.60
2019-06-08T09:52:18.412Z,28.70
2019-06-08T09:54:44.950Z,28.70
2019-06-08T09:57:11.641Z,28.70
2019-06-08T09:59:39.938Z,28.70
2019-06-08T10:02:12.445Z,28.70
2019-06-08T10:04:38.681Z,28.70
2019-06-08T10:07:05.918Z,28.70
2019-06-08T10:09:34.061Z,28.70
2019-06-08T10:12:03.429Z,28.70
2019-06-08T10:14:29.226Z,28.80
2019-06-08T10:16:56.865Z,28.80
2019-06-08T10:19:24.299Z,28.80
2019-06-08T10:21:50.957Z,28.70
2019-06-08T10:24:17.720Z,28.70
2019-06-08T10:26:47.635Z,28.60
2019-06-08T10:29:18.240Z,28.70
2019-06-08T10:31:44.698Z,28.70
2019-06-08T10:34:11.583Z,28.70
2019-06-08T10:36:38.419Z,28.70
2019-06-08T10:39:07.286Z,28.60
2019-06-08T10:41:34.042Z,28.50
2019-06-08T10:44:01.335Z,28.50
2019-06-08T10:46:28.842Z,28.60
2019-06-08T10:48:55.387Z,28.50
2019-06-08T10:51:22.076Z,28.40
2019-06-08T10:53:52.543Z,28.40
2019-06-08T10:56:18.862Z,28.40
2019-06-08T10:58:49.523Z,28.40
2019-06-08T11:01:14.412Z,28.50
2019-06-08T11:03:41.126Z,28.40
2019-06-08T11:06:12.890Z,28.40
2019-06-08T11:08:39.043Z,28.40
2019-06-08T11:11:11.544Z,28.50
2019-06-08T11:13:34.924Z,28.50
2019-06-08T11:16:02.824Z,28.40
2019-06-08T11:18:29.768Z,28.40
2019-06-08T11:20:59.492Z,28.50
2019-06-08T11:23:25.813Z,28.40
2019-06-08T11:25:52.413Z,28.50
2019-06-08T11:28:19.151Z,28.50
2019-06-08T11:30:48.492Z,28.50
2019-06-08T11:33:15.048Z,28.50
2019-06-08T11:35:41.617Z,28.40
2019-06-08T11:38:10.915Z,28.30
2019-06-08T11:40:37.882Z,28.20
2019-06-08T11:43:06.362Z,28.20
2019-06-08T11:45:33.156Z,28.10
2019-06-08T11:48:00.475Z,28.10
2019-06-08T11:50:41.429Z,28.00
2019-06-08T11:53:07.816Z,28.00
2019-06-08T11:55:34.350Z,28.00
2019-06-08T11:58:01.135Z,28.10
2019-06-08T12:01:02.891Z,28.20
2019-06-08T12:03:30.242Z,28.20
2019-06-08T12:05:58.145Z,28.20
2019-06-08T12:08:24.826Z,28.10
2019-06-08T12:10:52.485Z,28.10
2019-06-08T12:13:19.200Z,28.20
2019-06-08T12:15:48.199Z,28.20
2019-06-08T12:18:14.660Z,28.10
2019-06-08T12:20:41.639Z,28.20
2019-06-08T12:23:08.409Z,28.10
2019-06-08T12:25:37.775Z,28.10
2019-06-08T12:28:04.558Z,28.10
2019-06-08T12:30:31.127Z,28.00
2019-06-08T12:32:59.672Z,28.00
2019-06-08T12:35:28.251Z,28.00
2019-06-08T12:37:54.516Z,28.00
2019-06-08T12:40:21.437Z,28.00
2019-06-08T12:42:47.976Z,28.00
2019-06-08T12:45:15.455Z,28.00
2019-06-08T12:47:42.250Z,27.90
2019-06-08T12:50:12.266Z,28.00
2019-06-08T12:52:39.108Z,28.00
2019-06-08T12:55:12.559Z,28.00
2019-06-08T12:57:35.391Z,28.00
2019-06-08T13:00:03.787Z,28.10
2019-06-08T13:02:30.373Z,28.00
2019-06-08T13:04:56.997Z,28.00
2019-06-08T13:07:23.457Z,28.00
2019-06-08T13:09:50.054Z,28.00
2019-06-08T13:12:19.581Z,28.10
2019-06-08T13:14:44.969Z,28.10
2019-06-08T13:17:13.094Z,28.10
2019-06-08T13:19:39.667Z,28.00
2019-06-08T13:22:06.362Z,28.00
2019-06-08T13:24:32.904Z,28.00
2019-06-08T13:26:59.806Z,28.00
2019-06-08T13:29:28.080Z,28.00
2019-06-08T13:31:54.774Z,28.00
2019-06-08T13:34:24.347Z,28.00
2019-06-08T13:36:52.029Z,28.00
2019-06-08T13:39:21.684Z,28.00
2019-06-08T13:41:48.229Z,28.10
2019-06-08T13:44:15.647Z,28.00
2019-06-08T13:46:42.234Z,28.10
2019-06-08T13:49:09.066Z,28.10
2019-06-08T13:51:38.544Z,28.10
2019-06-08T13:54:05.214Z,28.10
2019-06-08T13:56:31.912Z,28.10
2019-06-08T13:58:58.592Z,28.10
2019-06-08T14:01:30.474Z,28.10
2019-06-08T14:03:54.510Z,28.10
2019-06-08T14:06:22.204Z,28.10
2019-06-08T14:08:49.874Z,28.10
2019-06-08T14:11:19.606Z,28.10
2019-06-08T14:13:47.946Z,28.10
2019-06-08T14:16:16.005Z,28.00
2019-06-08T14:18:42.727Z,28.00
2019-06-08T14:21:09.587Z,28.00
2019-06-08T14:23:38.685Z,28.10
2019-06-08T14:26:04.698Z,28.10
2019-06-08T14:28:31.398Z,28.10
2019-06-08T14:30:59.361Z,28.10
2019-06-08T14:33:31.680Z,28.10
2019-06-08T14:35:59.203Z,28.20
2019-06-08T14:38:35.199Z,28.20
2019-06-08T14:40:54.208Z,28.20
2019-06-08T14:43:23.000Z,28.20
2019-06-08T14:45:49.547Z,28.20
2019-06-08T14:48:20.893Z,28.20
2019-06-08T14:50:44.553Z,28.10
2019-06-08T14:53:11.143Z,28.10
2019-06-08T14:55:38.749Z,28.20
2019-06-08T14:58:08.167Z,28.10
2019-06-08T15:00:34.192Z,28.10
2019-06-08T15:03:00.778Z,28.00
2019-06-08T15:05:30.713Z,28.00
2019-06-08T15:07:58.145Z,28.00
2019-06-08T15:10:25.461Z,28.00
2019-06-08T15:12:53.713Z,28.00
2019-06-08T15:15:21.701Z,28.00
2019-06-08T15:17:48.233Z,28.00
2019-06-08T15:20:17.619Z,28.00
2019-06-08T15:22:44.437Z,28.00
2019-06-08T15:25:11.575Z,28.10
2019-06-08T15:27:41.121Z,28.10
2019-06-08T15:30:07.828Z,28.10
2019-06-08T15:32:35.723Z,28.20
2019-06-08T15:35:04.290Z,28.10
2019-06-08T15:37:32.729Z,28.20
2019-06-08T15:39:59.257Z,28.20
2019-06-08T15:42:28.696Z,28.20
2019-06-08T15:44:54.235Z,28.20
2019-06-08T15:47:22.081Z,28.10
2019-06-08T15:49:50.433Z,28.10
2019-06-08T15:52:17.540Z,28.10
2019-06-08T15:54:44.232Z,28.10
2019-06-08T15:57:11.026Z,28.10
2019-06-08T15:59:41.588Z,28.10
2019-06-08T16:02:06.056Z,28.10
2019-06-08T16:04:33.817Z,28.10
2019-06-08T16:07:00.474Z,28.10
2019-06-08T16:09:28.056Z,28.10
2019-06-08T16:11:54.697Z,28.00
2019-06-08T16:14:21.382Z,28.00
2019-06-08T16:16:48.089Z,28.00
2019-06-08T16:19:14.756Z,28.00
2019-06-08T16:21:42.159Z,28.00
2019-06-08T16:24:09.539Z,28.00
2019-06-08T16:26:49.966Z,28.00
2019-06-08T16:29:07.827Z,28.00
2019-06-08T16:31:35.464Z,28.00
2019-06-08T16:34:14.424Z,28.00
2019-06-08T16:36:41.755Z,28.00
2019-06-08T16:39:11.737Z,28.00
2019-06-08T16:41:42.124Z,28.00
2019-06-08T16:44:12.957Z,27.90
2019-06-08T16:46:40.835Z,27.90
2019-06-08T16:49:08.820Z,27.90
2019-06-08T16:51:36.710Z,27.80
2019-06-08T16:54:08.590Z,27.80
2019-06-08T16:56:36.896Z,27.80
2019-06-08T16:59:05.643Z,27.80
2019-06-08T17:01:32.860Z,27.70
2019-06-08T17:04:00.571Z,27.60
2019-06-08T17:06:29.009Z,27.60
2019-06-08T17:08:55.490Z,27.60
2019-06-08T17:11:21.948Z,27.50
2019-06-08T17:13:48.498Z,27.50
2019-06-08T17:16:15.107Z,27.50
2019-06-08T17:18:41.766Z,27.40
2019-06-08T17:21:08.234Z,27.30
2019-06-08T17:23:34.751Z,27.20
2019-06-08T17:26:01.537Z,27.10
2019-06-08T17:28:30.678Z,27.10
2019-06-08T17:30:57.246Z,27.10
2019-06-08T17:33:23.843Z,27.10
2019-06-08T17:35:50.361Z,27.00
2019-06-08T17:38:17.120Z,27.00
2019-06-08T17:40:45.623Z,26.90
2019-06-08T17:43:12.245Z,26.90
2019-06-08T17:45:38.857Z,26.80
2019-06-08T17:48:05.565Z,26.80
2019-06-08T17:50:33.146Z,26.80
2019-06-08T17:52:59.602Z,26.80
2019-06-08T17:55:27.267Z,26.80
2019-06-08T17:57:53.964Z,26.80
2019-06-08T18:00:20.794Z,26.70
2019-06-08T18:02:48.402Z,26.70
2019-06-08T18:05:17.735Z,26.70
2019-06-08T18:07:45.662Z,26.60
2019-06-08T18:10:13.680Z,26.60
2019-06-08T18:12:43.011Z,26.60
2019-06-08T18:15:10.742Z,26.50
2019-06-08T18:17:40.814Z,26.50
2019-06-08T18:20:09.756Z,26.40
2019-06-08T18:22:39.131Z,26.40
2019-06-08T18:25:07.750Z,26.40
2019-06-08T18:27:34.649Z,26.30
2019-06-08T18:30:08.024Z,26.30
2019-06-08T18:32:31.381Z,26.30
2019-06-08T18:34:58.415Z,26.20
2019-06-08T18:37:25.063Z,26.20
2019-06-08T18:39:51.719Z,26.30
2019-06-08T18:42:19.842Z,26.20
2019-06-08T18:44:48.566Z,26.10
2019-06-08T18:47:17.666Z,26.00
2019-06-08T18:49:44.216Z,25.90
2019-06-08T18:52:11.671Z,26.00
2019-06-08T18:54:39.994Z,26.00
2019-06-08T18:57:08.967Z,25.90
2019-06-08T18:59:37.555Z,25.80
2019-06-08T19:02:04.008Z,25.70
2019-06-08T19:04:31.101Z,25.70
2019-06-08T19:07:01.397Z,25.70
2019-06-08T19:09:28.013Z,25.60
2019-06-08T19:11:54.546Z,25.70
2019-06-08T19:14:21.203Z,25.50
2019-06-08T19:16:54.200Z,25.50
2019-06-08T19:19:17.277Z,25.50
2019-06-08T19:21:44.878Z,25.40
2019-06-08T19:24:11.673Z,25.40
2019-06-08T19:26:40.982Z,25.40
2019-06-08T19:29:07.726Z,25.40
2019-06-08T19:31:34.539Z,25.30
2019-06-08T19:34:03.003Z,25.30
2019-06-08T19:36:29.637Z,25.30
2019-06-08T19:38:57.951Z,25.30
2019-06-08T19:41:24.403Z,25.20
2019-06-08T19:43:54.065Z,25.20
2019-06-08T19:46:20.179Z,25.10
2019-06-08T19:48:54.206Z,25.10
2019-06-08T19:51:17.092Z,25.20
2019-06-08T19:53:47.639Z,25.10
2019-06-08T19:56:12.110Z,25.10
2019-06-08T19:58:52.396Z,25.00
2019-06-08T20:01:07.809Z,25.00
2019-06-08T20:03:34.239Z,25.00
2019-06-08T20:06:01.052Z,25.00
2019-06-08T20:08:29.106Z,24.80
2019-06-08T20:10:57.466Z,24.70
2019-06-08T20:13:24.188Z,24.80
2019-06-08T20:15:57.169Z,24.90
2019-06-08T20:18:19.126Z,24.90
2019-06-08T20:20:46.834Z,24.90
2019-06-08T20:23:13.986Z,24.80
2019-06-08T20:25:41.147Z,24.70
2019-06-08T20:28:12.106Z,24.70
2019-06-08T20:30:40.603Z,24.50
2019-06-08T20:33:08.219Z,24.60
2019-06-08T20:35:37.399Z,24.70
2019-06-08T20:38:03.678Z,24.60
2019-06-08T20:40:30.274Z,24.70
2019-06-08T20:42:58.049Z,24.60
2019-06-08T20:45:27.915Z,24.60
2019-06-08T20:47:54.006Z,24.60
2019-06-08T20:50:20.584Z,24.60
2019-06-08T20:52:49.274Z,24.50
2019-06-08T20:55:17.477Z,24.50
2019-06-08T20:57:45.108Z,24.40
2019-06-08T21:00:12.117Z,24.50
2019-06-08T21:02:38.596Z,24.40
2019-06-08T21:05:07.882Z,24.40
2019-06-08T21:07:34.690Z,24.50
2019-06-08T21:10:01.427Z,24.40
2019-06-08T21:12:28.435Z,24.50
2019-06-08T21:14:55.518Z,24.50
2019-06-08T21:17:21.999Z,24.50
2019-06-08T21:19:48.869Z,24.50
2019-06-08T21:22:15.540Z,24.40
2019-06-08T21:24:42.161Z,24.40
2019-06-08T21:27:09.832Z,24.40
2019-06-08T21:29:47.601Z,24.40
2019-06-08T21:32:04.655Z,24.40
2019-06-08T21:34:31.343Z,24.40
2019-06-08T21:37:00.733Z,24.40
2019-06-08T21:39:28.319Z,24.30
2019-06-08T21:41:58.548Z,24.30
2019-06-08T21:44:22.969Z,24.40
2019-06-08T21:46:53.028Z,24.30
2019-06-08T21:49:21.753Z,24.30
2019-06-08T21:51:50.207Z,24.20
2019-06-08T21:54:18.064Z,24.20
2019-06-08T21:56:44.694Z,24.20
2019-06-08T21:59:11.559Z,24.30
2019-06-08T22:02:01.833Z,24.30
2019-06-08T22:04:32.759Z,24.30
2019-06-08T22:07:01.363Z,24.30
2019-06-08T22:09:28.770Z,24.30
2019-06-08T22:11:57.085Z,24.20
2019-06-08T22:14:23.790Z,24.20
2019-06-08T22:16:50.857Z,24.20
2019-06-08T22:19:18.791Z,24.10
2019-06-08T22:21:47.917Z,24.10
2019-06-08T22:24:14.299Z,24.10
2019-06-08T22:26:40.789Z,24.10
2019-06-08T22:29:07.982Z,24.10
2019-06-08T22:31:37.578Z,24.00
2019-06-08T22:34:04.292Z,24.00
2019-06-08T22:36:30.771Z,24.00
2019-06-08T22:39:00.279Z,24.00
2019-06-08T22:41:27.941Z,23.90
2019-06-08T22:43:55.064Z,24.00
2019-06-08T22:46:22.659Z,23.90
2019-06-08T22:48:50.581Z,23.70
2019-06-08T22:51:19.073Z,23.60
2019-06-08T22:53:47.942Z,23.70
2019-06-08T22:56:14.503Z,23.70
2019-06-08T22:58:41.454Z,23.70
2019-06-08T23:01:11.272Z,23.60
2019-06-08T23:03:36.418Z,23.60
2019-06-08T23:06:04.317Z,23.60
2019-06-08T23:08:32.980Z,23.50
2019-06-08T23:11:02.011Z,23.50
2019-06-08T23:13:28.466Z,23.40
2019-06-08T23:15:57.857Z,23.30
2019-06-08T23:18:23.610Z,23.20
2019-06-08T23:20:50.282Z,23.30
2019-06-08T23:23:17.840Z,23.30
2019-06-08T23:25:44.398Z,23.30
2019-06-08T23:28:10.945Z,23.30
2019-06-08T23:30:38.316Z,23.30
2019-06-08T23:33:07.917Z,23.20
2019-06-08T23:35:56.853Z,23.10
2019-06-08T23:38:04.973Z,23.10
2019-06-08T23:40:31.763Z,23.00
2019-06-08T23:43:00.085Z,23.20
2019-06-08T23:45:27.285Z,23.10
2019-06-08T23:47:54.024Z,23.00
2019-06-08T23:50:21.698Z,23.00
2019-06-08T23:52:48.537Z,23.00
2019-06-08T23:55:15.205Z,22.90
2019-06-08T23:57:41.861Z,22.90
